Flight Track Log - Related Links

Times and Time Zones

All times are in EDT time to prevent confusion due to time zone crossing. See the RPA3228 flight status page for this flight to view local times or setup timezone preferences in your user account.

Time Position Orientation Groundspeed Altitude Reporting Facility
EDT Latitude Longitude Course Direction KTS MPH feet Rate Location/Type
Thu 07:05:10 AM 36.1167 -86.6833 68° East 131 151 1,600  Level Nashville TRACON
Thu 07:05:28 AM 36.1000 -86.6833 180° South 135 155 2,600 2,538 Climbing Nashville TRACON
Thu 07:06:28 AM 36.0833 -86.6333 112° Southeast 226 260 4,900 2,500 Climbing Nashville TRACON
Thu 07:07:00 AM 36.2414 -86.3269 64° Northeast  Level Estimated
Thu 07:07:28 AM 36.1000 -86.5333 78° East 319 367 7,600  Level Nashville TRACON
Thu 07:08:00 AM 36.2784 -86.2149 64° Northeast  Level Estimated
Thu 07:08:22 AM 36.1167 -86.4500 76° East 317 365 10,300  Level Nashville TRACON
Thu 07:09:00 AM 36.3153 -86.1028 68° East  Level Estimated
Thu 07:09:34 AM 36.1467 -86.3089 75° East 364 419 12,600  Level Memphis Center
Thu 07:10:00 AM 36.3521 -85.9906 68° East  Level Estimated
Thu 07:10:34 AM 36.1758 -86.1839 74° East 376 433 15,200  Level Memphis Center
Thu 07:11:34 AM 36.2072 -86.0614 72° East 381 438 17,400 2,150 Climbing Memphis Center
Thu 07:12:34 AM 36.2592 -85.9403 62° Northeast 393 452 19,500 2,066 Climbing Memphis Center
Thu 07:14:05 AM 36.3347 -85.7669 62° Northeast 414 476 22,600 2,092 Climbing Indianapolis Center
Thu 07:15:06 AM 36.3975 -85.6397 58° Northeast 427 491 24,800 1,967 Climbing Indianapolis Center
Thu 07:16:07 AM 36.4594 -85.5069 60° Northeast 439 505 26,600 1,721 Climbing Indianapolis Center
Thu 07:17:08 AM 36.5247 -85.3700 59° Northeast 455 524 28,300 1,967 Climbing Indianapolis Center
Thu 07:18:09 AM 36.6033 -85.2011 60° Northeast 468 539 30,600 2,115 Climbing Indianapolis Center
Thu 07:19:10 AM 36.6533 -85.0528 67° East 463 533 32,600 1,721 Climbing Indianapolis Center
Thu 07:20:11 AM 36.6992 -84.9033 69° East 460 529 34,100 1,180 Climbing Indianapolis Center
Thu 07:21:12 AM 36.7453 -84.7519 69° East 464 534 35,000 634 Climbing Indianapolis Center
Thu 07:22:14 AM 36.7922 -84.5989 69° East 469 540 35,400 537 Climbing Indianapolis Center
Thu 07:23:15 AM 36.8383 -84.4444 70° East 480 552 36,100 934 Climbing Indianapolis Center
Thu 07:24:16 AM 36.8869 -84.2825 69° East 492 566 37,300 1,033 Climbing Indianapolis Center
Thu 07:25:17 AM 36.9347 -84.1225 69° East 492 566 38,200 836 Climbing Indianapolis Center
Thu 07:26:18 AM 36.9817 -83.9611 70° East 492 566 39,000 393 Climbing Indianapolis Center
Thu 07:27:19 AM 37.0333 -83.7978 68° East 499 574 39,000  Level Indianapolis Center
Thu 07:28:20 AM 37.0814 -83.6350 70° East 501 577 39,000  Level Indianapolis Center
Thu 07:29:22 AM 37.1283 -83.4714 70° East 498 573 39,000  Level Indianapolis Center
Thu 07:30:23 AM 37.1844 -83.2800 70° East 504 580 39,000  Level Indianapolis Center
Thu 07:31:24 AM 37.2314 -83.1144 70° East 502 578 39,000  Level Indianapolis Center
Thu 07:32:25 AM 37.2783 -82.9475 70° East 504 580 39,000  Level Indianapolis Center
Thu 07:33:26 AM 37.3261 -82.7817 70° East 503 579 39,000  Level Indianapolis Center
Thu 07:34:28 AM 37.3736 -82.6156 70° East 502 578 39,000  Level Indianapolis Center
Thu 07:35:29 AM 37.4197 -82.4494 71° East 500 575 39,000  Level Indianapolis Center
Thu 07:36:30 AM 37.4658 -82.2842 71° East 500 575 39,000  Level Indianapolis Center
Thu 07:37:32 AM 37.5111 -82.1200 71° East 496 571 39,000  Level Indianapolis Center
Thu 07:38:33 AM 37.5564 -81.9547 71° East 497 572 39,000  Level Indianapolis Center
Thu 07:39:34 AM 37.6019 -81.7919 71° East 494 568 39,000  Level Indianapolis Center
Thu 07:40:35 AM 37.6469 -81.6272 71° East 496 571 39,000  Level Indianapolis Center
Thu 07:41:37 AM 37.6956 -81.4411 72° East 499 574 39,000  Level Indianapolis Center
Thu 07:42:38 AM 37.7397 -81.2806 71° East 498 573 39,000  Level Indianapolis Center
Thu 07:43:39 AM 37.7839 -81.1203 71° East 497 572 39,000  Level Indianapolis Center
Thu 07:44:41 AM 37.8383 -80.9625 66° East 491 565 39,000  Level Indianapolis Center
Thu 07:45:42 AM 37.8933 -80.8053 66° East 490 564 39,000  Level Indianapolis Center
Thu 07:46:43 AM 37.9494 -80.6478 66° East 492 566 39,000  Level Indianapolis Center
Thu 07:47:45 AM 38.0047 -80.4889 66° East 492 566 39,000  Level Indianapolis Center
Thu 07:48:46 AM 38.0714 -80.2969 66° East 495 570 39,000 -246 Level Indianapolis Center
Thu 07:49:47 AM 38.1281 -80.1378 66° East 496 571 38,500 -1,073 Descending Indianapolis Center
Thu 07:50:49 AM 38.1867 -79.9742 65° Northeast 494 568 36,800 -1,610 Descending Indianapolis Center
Thu 07:51:50 AM 38.2403 -79.8239 66° East 484 557 35,200 -1,610 Descending Indianapolis Center
Thu 07:52:52 AM 38.2933 -79.6711 66° East 483 556 33,500 -1,073 Descending Indianapolis Center
Thu 07:53:53 AM 38.3453 -79.5175 67° East 482 555 33,000 -443 Descending Indianapolis Center
Thu 07:54:54 AM 38.4075 -79.3342 67° East 481 554 32,600 -1,489 Descending Indianapolis Center
Thu 07:56:10 AM 38.4522 -79.1497 73° East 486 559 29,600 -2,321 Descending Washington Center
Thu 07:57:11 AM 38.4819 -78.9814 77° East 479 551 27,300 -2,066 Descending Washington Center
Thu 07:58:12 AM 38.5078 -78.7994 80° East 479 551 25,400 -2,218 Descending Washington Center
Thu 07:59:10 AM 38.5328 -78.6386 79° East 473 544 22,900 -1,866 Descending Washington Center
Thu 08:00:11 AM 38.5575 -78.4856 78° East 458 527 21,700 -1,230 Descending Washington Center
Thu 08:01:12 AM 38.5819 -78.3378 78° East 441 507 20,400 -1,613 Descending Washington Center
Thu 08:02:10 AM 38.6142 -78.1956 74° East 422 486 18,500 -1,831 Descending Washington Center
Thu 08:03:10 AM 38.6544 -78.0667 68° East 404 465 16,800 -1,853 Descending Washington Center
Thu 08:05:21 AM 38.7500 -77.8167 64° Northeast 330 380 12,600 -1,719 Descending Potomac TRACON
Thu 08:06:15 AM 38.8000 -77.7333 52° Northeast 323 372 11,500 -1,278 Descending Potomac TRACON
Thu 08:07:09 AM 38.8500 -77.6500 52° Northeast 314 361 10,300 -1,368 Descending Potomac TRACON
Thu 08:08:09 AM 38.9000 -77.5667 52° Northeast 308 354 8,900 -1,316 Descending Potomac TRACON
Thu 08:09:03 AM 38.9500 -77.5000 46° Northeast 295 339 7,800 -1,444 Descending Potomac TRACON
Thu 08:09:57 AM 38.9833 -77.4167 63° Northeast 288 331 6,300 -1,461 Descending Potomac TRACON
Thu 08:10:58 AM 39.0167 -77.3167 67° East 285 328 5,000 -887 Descending Potomac TRACON
Thu 08:11:52 AM 39.0167 -77.2333 90° East 262 302 4,600 -842 Descending Potomac TRACON
Thu 08:12:52 AM 38.9833 -77.1833 131° Southeast 175 201 3,400 -1,105 Descending Potomac TRACON
Thu 08:13:46 AM 38.9667 -77.1500 123° Southeast 167 192 2,500 -895 Descending Potomac TRACON
Thu 08:14:46 AM 38.9333 -77.1000 131° Southeast 162 186 1,700 -800 Descending Potomac TRACON
Thu 08:15:46 AM 38.9000 -77.0667 142° Southeast 126 145 900 -684 Descending Potomac TRACON
Thu 08:16:40 AM 38.8833 -77.0500 142° Southeast 123 142 400 -556 Descending Potomac TRACON

Login

Don't have an account? Register now (free) for customized features, flight alerts, and more!